Time;durP1;ratioP1;P1;durP2;ratioP2;P2;SDS_P1;SDS_P2;PMS_P1;PMS_P2;Temp;Humidity;BMP_temperature;BMP_pressure;BME280_temperature;BME280_humidity;BME280_pressure;Samples;Min_cycle;Max_cycle;Signal;HPM_P1;HPM_P2
2021/03/11 00:01:09;;;;;;;29.20;26.30;;;7.50;99.90;;;;;;5072231;28;20468;-72
2021/03/11 00:03:36;;;;;;;30.83;27.03;;;7.60;99.90;;;;;;5068381;28;20455;-72
2021/03/11 00:06:02;;;;;;;31.57;28.27;;;7.50;99.90;;;;;;5081454;28;20866;-73
2021/03/11 00:08:28;;;;;;;29.13;26.13;;;7.60;99.90;;;;;;5072128;28;20467;-73
2021/03/11 00:10:55;;;;;;;30.07;27.17;;;7.60;99.90;;;;;;5075106;28;20782;-73
2021/03/11 00:13:21;;;;;;;31.03;27.60;;;7.60;99.90;;;;;;5075592;28;20514;-73
2021/03/11 00:15:48;;;;;;;28.40;25.17;;;7.60;99.90;;;;;;5078584;28;20503;-73
2021/03/11 00:18:15;;;;;;;27.50;24.80;;;7.70;99.90;;;;;;5082142;28;20465;-72
2021/03/11 00:20:42;;;;;;;28.07;25.40;;;7.60;99.90;;;;;;5071207;28;20489;-72
2021/03/11 00:23:09;;;;;;;28.13;25.47;;;7.70;99.90;;;;;;5075718;28;20465;-72
2021/03/11 00:25:37;;;;;;;27.90;25.20;;;7.70;99.90;;;;;;5069176;28;20502;-72
2021/03/11 00:28:04;;;;;;;26.90;24.60;;;7.70;99.90;;;;;;5070876;28;20468;-72
2021/03/11 00:30:30;;;;;;;27.47;24.60;;;7.70;99.90;;;;;;5078537;28;20466;-73
2021/03/11 00:32:57;;;;;;;25.40;23.17;;;7.80;99.90;;;;;;5081405;28;20756;-72
2021/03/11 00:35:24;;;;;;;26.10;23.50;;;7.80;99.90;;;;;;5073014;28;21000;-72
2021/03/11 00:37:52;;;;;;;27.47;24.77;;;7.80;99.90;;;;;;5069351;28;20462;-73
2021/03/11 00:40:21;;;;;;;26.03;23.43;;;7.80;99.90;;;;;;5079443;28;20478;-72
2021/03/11 00:42:49;;;;;;;27.40;24.80;;;7.80;99.90;;;;;;5068040;28;20587;-73
2021/03/11 00:45:16;;;;;;;25.43;22.97;;;7.80;99.90;;;;;;5069092;28;20473;-73
2021/03/11 00:47:44;;;;;;;24.77;22.40;;;7.70;99.90;;;;;;5078647;28;20967;-72
2021/03/11 00:50:13;;;;;;;22.93;20.90;;;7.70;99.90;;;;;;5076160;28;20458;-72
2021/03/11 00:52:40;;;;;;;25.20;22.70;;;7.70;99.90;;;;;;5068003;28;20535;-72
2021/03/11 00:55:08;;;;;;;24.53;22.07;;;7.80;99.90;;;;;;5070638;28;21003;-73
2021/03/11 00:57:34;;;;;;;23.00;20.90;;;7.80;99.90;;;;;;5073299;28;20500;-72
2021/03/11 01:00:01;;;;;;;23.17;21.07;;;7.80;99.90;;;;;;5072118;28;20538;-73
2021/03/11 01:02:27;;;;;;;23.43;21.37;;;7.80;99.90;;;;;;5071817;28;20503;-73
2021/03/11 01:04:54;;;;;;;23.20;21.10;;;7.80;99.90;;;;;;5073798;28;20961;-72
2021/03/11 01:07:20;;;;;;;22.00;20.10;;;7.80;99.90;;;;;;5071918;28;20486;-73
2021/03/11 01:09:47;;;;;;;24.40;22.00;;;7.80;99.90;;;;;;5068808;28;21035;-73
2021/03/11 01:12:15;;;;;;;21.87;19.80;;;7.90;99.90;;;;;;5075607;28;20989;-73
2021/03/11 01:14:43;;;;;;;22.80;20.50;;;7.90;99.90;;;;;;5076510;28;20549;-73
2021/03/11 01:17:10;;;;;;;21.27;19.37;;;8.00;99.90;;;;;;5071122;28;20468;-73
2021/03/11 01:19:38;;;;;;;20.60;18.90;;;7.90;99.90;;;;;;5068065;28;20496;-73
2021/03/11 01:22:05;;;;;;;20.70;18.80;;;8.00;99.90;;;;;;5080986;28;20822;-73
2021/03/11 01:24:32;;;;;;;19.60;18.00;;;8.00;99.90;;;;;;5074068;28;20577;-73
2021/03/11 01:26:59;;;;;;;19.10;17.43;;;8.00;99.90;;;;;;5069798;28;20920;-73
2021/03/11 01:29:26;;;;;;;19.13;17.50;;;8.10;99.90;;;;;;5069566;28;20474;-73
2021/03/11 01:31:52;;;;;;;18.67;17.23;;;8.10;99.90;;;;;;5074785;28;20469;-73
2021/03/11 01:34:19;;;;;;;19.63;17.97;;;8.10;99.90;;;;;;5076581;28;20461;-73
2021/03/11 01:36:45;;;;;;;19.60;18.10;;;8.10;99.90;;;;;;5080142;28;20489;-73
2021/03/11 01:39:11;;;;;;;20.60;18.70;;;8.20;99.90;;;;;;5072481;28;20470;-73
2021/03/11 01:41:39;;;;;;;18.10;16.70;;;8.20;99.90;;;;;;5071853;28;20582;-74
2021/03/11 01:44:07;;;;;;;18.83;17.30;;;8.20;99.90;;;;;;5067097;28;20493;-73
2021/03/11 01:46:34;;;;;;;18.53;17.03;;;8.20;99.90;;;;;;5065161;28;20450;-73
2021/03/11 01:49:00;;;;;;;18.20;16.80;;;8.20;99.90;;;;;;5075681;28;20473;-73
2021/03/11 01:51:28;;;;;;;17.60;16.23;;;8.30;99.90;;;;;;5072783;28;20467;-73
2021/03/11 01:53:55;;;;;;;16.87;15.77;;;8.30;99.90;;;;;;5074961;28;20464;-73
2021/03/11 01:56:24;;;;;;;18.73;17.27;;;8.30;99.90;;;;;;5067167;28;21073;-73
2021/03/11 01:58:52;;;;;;;16.70;15.40;;;8.20;99.90;;;;;;5077130;28;20475;-73
2021/03/11 02:01:19;;;;;;;16.07;14.87;;;8.30;99.90;;;;;;5074656;28;20454;-74
2021/03/11 02:03:46;;;;;;;18.00;16.57;;;8.30;99.90;;;;;;5074780;28;21018;-73
2021/03/11 02:06:12;;;;;;;17.90;16.50;;;8.40;99.90;;;;;;5072171;28;20886;-73
2021/03/11 02:08:39;;;;;;;18.27;16.60;;;8.40;99.90;;;;;;5063429;28;20476;-74
2021/03/11 02:11:10;;;;;;;18.03;16.73;;;8.50;99.90;;;;;;5068515;28;20912;-73
2021/03/11 02:13:41;;;;;;;16.87;15.80;;;8.50;99.90;;;;;;5070505;28;20550;-73
2021/03/11 02:16:13;;;;;;;17.20;15.90;;;8.50;99.90;;;;;;5067374;28;20818;-73
2021/03/11 02:18:47;;;;;;;17.50;16.30;;;8.50;99.90;;;;;;5073511;28;20577;-73
2021/03/11 02:21:19;;;;;;;18.70;17.20;;;8.50;99.90;;;;;;5078647;28;20468;-73
2021/03/11 02:24:13;;;;;;;17.43;16.30;;;8.50;99.90;;;;;;5070399;28;20466;-73
2021/03/11 02:27:04;;;;;;;17.40;16.20;;;8.50;99.90;;;;;;5075267;28;21094;-74
2021/03/11 02:29:34;;;;;;;18.27;16.87;;;8.50;99.90;;;;;;5068126;28;20457;-73
2021/03/11 02:32:03;;;;;;;16.10;15.00;;;8.50;99.90;;;;;;5076437;28;21230;-74
2021/03/11 02:34:33;;;;;;;16.17;15.07;;;8.50;99.90;;;;;;5079381;28;20462;-73
2021/03/11 02:37:05;;;;;;;16.27;15.33;;;8.60;99.90;;;;;;5075311;28;20500;-74
2021/03/11 02:39:34;;;;;;;15.13;14.23;;;8.50;99.90;;;;;;5077773;28;20469;-73
2021/03/11 02:42:01;;;;;;;15.80;14.50;;;8.60;99.90;;;;;;5075064;28;20953;-74
2021/03/11 02:44:29;;;;;;;16.13;15.20;;;8.50;99.90;;;;;;5077084;28;20548;-73
2021/03/11 02:46:58;;;;;;;15.83;14.90;;;8.50;99.90;;;;;;5069694;28;21036;-74
2021/03/11 02:49:25;;;;;;;16.10;15.10;;;8.60;99.90;;;;;;5079220;28;20467;-74
2021/03/11 02:51:52;;;;;;;16.20;15.10;;;8.60;99.90;;;;;;5082909;28;20473;-73
2021/03/11 02:54:21;;;;;;;16.07;14.97;;;8.60;99.90;;;;;;5076069;28;20463;-73
2021/03/11 02:56:50;;;;;;;16.00;14.90;;;8.60;99.90;;;;;;5073737;28;20500;-73
2021/03/11 02:59:18;;;;;;;15.70;14.80;;;8.60;99.90;;;;;;5077719;28;20457;-73
2021/03/11 03:01:45;;;;;;;15.30;14.40;;;8.50;99.90;;;;;;5074938;28;20458;-74
2021/03/11 03:04:14;;;;;;;16.57;15.50;;;8.60;99.90;;;;;;5073502;28;20470;-74
2021/03/11 03:06:41;;;;;;;15.00;14.10;;;8.50;99.90;;;;;;5078770;28;20579;-73
2021/03/11 03:09:09;;;;;;;15.43;14.43;;;8.50;99.90;;;;;;5076130;28;20803;-73
2021/03/11 03:11:38;;;;;;;14.97;14.13;;;8.60;99.90;;;;;;5077454;28;20462;-74
2021/03/11 03:14:07;;;;;;;15.93;14.93;;;8.60;99.90;;;;;;5070447;28;20950;-74
2021/03/11 03:16:34;;;;;;;16.13;15.03;;;8.60;99.90;;;;;;5074068;28;20604;-73
2021/03/11 03:19:01;;;;;;;15.97;14.97;;;8.60;99.90;;;;;;5071079;28;20484;-74
2021/03/11 03:21:30;;;;;;;16.03;15.00;;;8.60;99.90;;;;;;5077158;28;21372;-73
2021/03/11 03:23:58;;;;;;;15.03;14.13;;;8.70;99.90;;;;;;5079898;28;20802;-73
2021/03/11 03:26:25;;;;;;;14.97;13.83;;;8.60;99.90;;;;;;5077520;28;20795;-73
2021/03/11 03:28:53;;;;;;;14.37;13.50;;;8.60;99.90;;;;;;5067049;28;20457;-74
2021/03/11 03:31:20;;;;;;;17.67;16.27;;;8.50;99.90;;;;;;5074360;28;20876;-74
2021/03/11 03:33:47;;;;;;;17.07;15.87;;;8.50;99.90;;;;;;5075771;28;20620;-73
2021/03/11 03:36:13;;;;;;;15.93;14.87;;;8.60;99.90;;;;;;5079178;28;20580;-74
2021/03/11 03:38:40;;;;;;;14.87;13.83;;;8.60;99.90;;;;;;5082041;28;20990;-74
2021/03/11 03:41:09;;;;;;;14.53;13.33;;;8.50;99.90;;;;;;5072560;28;20531;-74
2021/03/11 03:43:38;;;;;;;14.97;13.70;;;8.50;99.90;;;;;;5073691;28;20474;-74
2021/03/11 03:46:09;;;;;;;14.93;13.83;;;8.50;99.90;;;;;;5076144;28;20473;-73
2021/03/11 03:48:39;;;;;;;15.90;14.30;;;8.50;99.90;;;;;;5077693;28;20999;-73
2021/03/11 03:51:07;;;;;;;15.60;14.40;;;8.50;99.90;;;;;;5077681;28;20481;-73
2021/03/11 03:53:39;;;;;;;13.93;12.90;;;8.50;99.90;;;;;;5076866;28;20462;-73
2021/03/11 03:56:12;;;;;;;14.47;13.57;;;8.50;99.90;;;;;;5075026;28;20492;-73
2021/03/11 03:58:39;;;;;;;14.97;13.87;;;8.50;99.90;;;;;;5079345;28;20530;-73
2021/03/11 04:01:06;;;;;;;16.57;15.30;;;8.50;99.90;;;;;;5075663;28;20473;-73
2021/03/11 04:03:34;;;;;;;16.73;15.33;;;8.60;99.90;;;;;;5066029;28;20466;-73
2021/03/11 04:06:01;;;;;;;14.80;13.80;;;8.70;99.90;;;;;;5075774;28;20616;-73
2021/03/11 04:08:29;;;;;;;15.43;14.30;;;8.70;99.90;;;;;;5074005;28;20512;-73
2021/03/11 04:10:56;;;;;;;15.27;14.17;;;8.70;99.90;;;;;;5073128;28;20461;-73
2021/03/11 04:13:26;;;;;;;14.50;13.20;;;8.80;99.90;;;;;;5069344;28;20461;-73
2021/03/11 04:15:53;;;;;;;14.70;13.60;;;8.80;99.90;;;;;;5073255;28;20532;-73
2021/03/11 04:18:20;;;;;;;15.67;14.30;;;8.80;99.90;;;;;;5073119;28;21019;-73
2021/03/11 04:20:47;;;;;;;15.20;14.20;;;8.90;99.90;;;;;;5072912;28;20500;-73
2021/03/11 04:23:16;;;;;;;14.30;13.30;;;8.90;99.90;;;;;;5065837;28;21038;-73
2021/03/11 04:25:43;;;;;;;13.80;12.97;;;8.90;99.90;;;;;;5079065;28;20549;-73
2021/03/11 04:28:10;;;;;;;15.30;14.10;;;8.90;99.90;;;;;;5069036;28;20554;-73
2021/03/11 04:30:37;;;;;;;16.13;14.70;;;8.90;99.90;;;;;;5069826;28;20466;-73
2021/03/11 04:33:05;;;;;;;15.93;14.83;;;9.00;99.90;;;;;;5078518;28;20500;-73
2021/03/11 04:35:32;;;;;;;14.47;13.67;;;9.00;99.90;;;;;;5075976;28;20575;-73
2021/03/11 04:37:59;;;;;;;15.37;14.27;;;9.00;99.90;;;;;;5074732;28;20464;-73
2021/03/11 04:40:26;;;;;;;14.67;13.67;;;9.00;99.90;;;;;;5076289;28;21323;-73
2021/03/11 04:42:52;;;;;;;14.67;13.77;;;9.00;99.90;;;;;;5077886;28;20806;-73
2021/03/11 04:45:19;;;;;;;15.23;14.23;;;9.00;99.90;;;;;;5070682;28;20979;-73
2021/03/11 04:47:48;;;;;;;15.73;14.63;;;9.10;99.90;;;;;;5072135;28;20467;-73
2021/03/11 04:50:14;;;;;;;15.20;14.17;;;9.00;99.90;;;;;;5073318;28;20590;-73
2021/03/11 04:52:41;;;;;;;14.60;13.70;;;9.10;99.90;;;;;;5069435;28;20458;-73
2021/03/11 04:55:09;;;;;;;15.53;14.43;;;9.20;99.90;;;;;;5071573;28;20459;-73
2021/03/11 04:57:36;;;;;;;14.87;13.87;;;9.30;99.90;;;;;;5070705;28;20466;-73
2021/03/11 05:00:04;;;;;;;16.47;15.20;;;9.30;99.90;;;;;;5071984;28;20489;-73
2021/03/11 05:02:33;;;;;;;15.27;14.27;;;9.40;99.90;;;;;;5069867;28;20474;-73
2021/03/11 05:05:06;;;;;;;16.53;15.37;;;9.40;99.90;;;;;;5070435;28;20504;-73
2021/03/11 05:07:32;;;;;;;15.83;14.73;;;9.50;99.90;;;;;;5078199;28;20493;-73
2021/03/11 05:09:59;;;;;;;16.60;15.40;;;9.60;99.90;;;;;;5078228;28;20450;-73
2021/03/11 05:12:25;;;;;;;16.70;15.50;;;9.50;99.90;;;;;;5079774;28;20469;-73
2021/03/11 05:14:52;;;;;;;19.80;18.40;;;9.50;99.90;;;;;;5072633;28;21054;-74
2021/03/11 05:17:18;;;;;;;22.90;21.20;;;9.40;99.90;;;;;;5073108;28;20521;-74
2021/03/11 05:19:45;;;;;;;23.80;21.90;;;9.30;99.90;;;;;;5074248;28;20465;-75
2021/03/11 05:22:12;;;;;;;25.20;23.10;;;9.10;99.90;;;;;;5070005;28;20999;-75
2021/03/11 05:24:39;;;;;;;24.57;22.53;;;9.10;99.90;;;;;;5069871;28;20475;-77
2021/03/11 05:27:06;;;;;;;23.40;21.80;;;8.90;99.90;;;;;;5069210;28;20879;-77
2021/03/11 05:29:33;;;;;;;22.90;21.30;;;8.90;99.90;;;;;;5065510;28;20465;-78
2021/03/11 05:31:59;;;;;;;21.20;19.67;;;8.90;99.90;;;;;;5070574;28;20454;-77
2021/03/11 05:34:25;;;;;;;22.10;20.50;;;8.90;99.90;;;;;;5075183;28;20470;-76
2021/03/11 05:36:51;;;;;;;23.37;21.57;;;8.90;99.90;;;;;;5068603;28;20494;-76
2021/03/11 05:39:19;;;;;;;23.57;21.77;;;8.90;99.90;;;;;;5077514;28;20465;-76
2021/03/11 05:41:46;;;;;;;22.63;20.93;;;8.80;99.90;;;;;;5067808;28;20471;-75
2021/03/11 05:44:14;;;;;;;21.90;20.30;;;8.90;99.90;;;;;;5079708;28;20523;-75
2021/03/11 05:46:40;;;;;;;21.13;19.67;;;8.90;99.90;;;;;;5067956;28;20466;-75
2021/03/11 05:49:09;;;;;;;20.90;19.20;;;9.00;99.90;;;;;;5072490;28;21389;-74
2021/03/11 05:51:36;;;;;;;19.90;18.50;;;9.00;99.90;;;;;;5070284;28;20489;-74
2021/03/11 05:54:03;;;;;;;21.07;19.47;;;9.00;99.90;;;;;;5077577;28;20455;-74
2021/03/11 05:56:32;;;;;;;21.30;19.70;;;9.00;99.90;;;;;;5069864;28;20497;-75
2021/03/11 05:58:59;;;;;;;20.27;18.70;;;9.10;99.90;;;;;;5079457;28;21014;-75
2021/03/11 06:01:26;;;;;;;19.53;18.03;;;9.20;99.90;;;;;;5063153;28;20479;-75
2021/03/11 06:03:55;;;;;;;18.60;17.40;;;9.20;99.90;;;;;;5070134;28;20469;-74
2021/03/11 06:06:23;;;;;;;19.37;17.97;;;9.40;99.90;;;;;;5069436;28;20853;-75
2021/03/11 06:08:54;;;;;;;18.40;17.07;;;9.40;99.90;;;;;;5076339;28;20488;-74
2021/03/11 06:11:22;;;;;;;18.73;17.30;;;9.50;99.90;;;;;;5078840;28;20466;-73
2021/03/11 06:13:51;;;;;;;18.90;17.60;;;9.50;99.90;;;;;;5076029;28;20483;-74
2021/03/11 06:16:21;;;;;;;19.37;17.87;;;9.50;99.90;;;;;;5073702;28;21022;-73
2021/03/11 06:18:50;;;;;;;18.87;17.40;;;9.60;99.90;;;;;;5074691;28;20463;-73
2021/03/11 06:21:17;;;;;;;18.80;17.40;;;9.60;99.90;;;;;;5079450;28;20454;-73
2021/03/11 06:23:44;;;;;;;18.80;17.50;;;9.60;99.90;;;;;;5080667;28;20910;-74
2021/03/11 06:26:12;;;;;;;17.23;16.03;;;9.70;99.90;;;;;;5083743;28;20465;-74
2021/03/11 06:28:53;;;;;;;18.20;17.00;;;9.70;99.90;;;;;;5072153;28;20475;-74
2021/03/11 06:31:21;;;;;;;18.90;17.60;;;9.70;99.90;;;;;;5073034;28;20473;-73
2021/03/11 06:33:49;;;;;;;18.50;17.03;;;9.80;99.90;;;;;;5076009;28;20551;-73
2021/03/11 06:36:16;;;;;;;18.33;17.13;;;9.80;99.90;;;;;;5071072;28;20490;-74
2021/03/11 06:38:45;;;;;;;19.00;17.60;;;9.80;99.90;;;;;;5075596;28;20801;-73
2021/03/11 06:41:13;;;;;;;18.77;17.57;;;9.90;99.90;;;;;;5076133;28;20471;-74
2021/03/11 06:43:57;;;;;;;18.50;17.20;;;10.00;99.90;;;;;;5074429;28;20462;-73
2021/03/11 06:46:25;;;;;;;17.00;15.90;;;10.00;99.90;;;;;;5076290;28;20461;-73
2021/03/11 06:49:05;;;;;;;17.13;15.93;;;10.10;99.90;;;;;;5078766;28;20612;-74
2021/03/11 06:51:32;;;;;;;17.33;16.03;;;10.10;99.90;;;;;;5073774;28;20469;-74
2021/03/11 06:53:59;;;;;;;18.20;16.87;;;10.20;99.90;;;;;;5071883;28;20515;-74
2021/03/11 06:56:27;;;;;;;17.93;16.60;;;10.20;99.90;;;;;;5075888;28;20489;-74
2021/03/11 06:59:02;;;;;;;16.77;15.57;;;10.30;99.90;;;;;;5075730;28;20993;-74
2021/03/11 07:01:30;;;;;;;16.03;14.93;;;10.30;99.90;;;;;;5069312;28;20470;-74
2021/03/11 07:03:58;;;;;;;16.27;14.93;;;10.40;99.90;;;;;;5063277;28;20466;-74
2021/03/11 07:06:30;;;;;;;16.73;15.30;;;10.40;99.90;;;;;;5069656;28;20485;-74
2021/03/11 07:08:58;;;;;;;14.93;14.03;;;10.40;99.90;;;;;;5077443;28;20469;-74
2021/03/11 07:11:25;;;;;;;15.50;14.50;;;10.40;99.90;;;;;;5073664;28;20571;-74
2021/03/11 07:13:53;;;;;;;15.60;14.47;;;10.40;99.90;;;;;;5066555;28;20483;-74
2021/03/11 07:16:21;;;;;;;16.30;15.20;;;10.40;99.90;;;;;;5066452;28;21025;-74
2021/03/11 07:18:49;;;;;;;17.17;15.80;;;10.40;99.90;;;;;;5079513;28;20462;-74
2021/03/11 07:21:40;;;;;;;16.77;15.73;;;10.50;99.90;;;;;;5077638;28;20992;-74
2021/03/11 07:24:07;;;;;;;17.67;15.97;;;10.50;99.90;;;;;;5081776;28;20987;-74
2021/03/11 07:26:34;;;;;;;15.47;14.43;;;10.50;99.90;;;;;;5074488;28;21068;-74
2021/03/11 07:29:18;;;;;;;15.93;14.90;;;10.60;99.90;;;;;;5067184;28;20512;-74
2021/03/11 07:31:45;;;;;;;16.17;15.17;;;10.60;99.90;;;;;;5068170;28;20473;-74
2021/03/11 07:34:12;;;;;;;16.93;15.90;;;10.70;99.90;;;;;;5070504;28;20473;-74
2021/03/11 07:36:39;;;;;;;17.53;16.13;;;10.70;99.90;;;;;;5074024;28;20968;-76
2021/03/11 07:39:07;;;;;;;17.10;15.90;;;10.90;99.90;;;;;;5068669;28;21041;-75
2021/03/11 07:41:33;;;;;;;17.30;15.90;;;11.00;99.90;;;;;;5064688;28;20467;-75
2021/03/11 07:44:00;;;;;;;17.43;16.33;;;11.20;99.90;;;;;;5063393;28;20468;-74
2021/03/11 07:46:27;;;;;;;16.37;15.33;;;11.40;99.90;;;;;;5067188;28;20876;-74
2021/03/11 07:48:55;;;;;;;17.00;15.83;;;11.50;99.90;;;;;;5071777;28;20516;-77
2021/03/11 07:51:22;;;;;;;17.60;16.20;;;11.50;99.90;;;;;;5067233;28;20454;-75
2021/03/11 07:53:50;;;;;;;17.83;16.37;;;11.60;99.90;;;;;;5079872;28;20454;-74
2021/03/11 07:56:17;;;;;;;17.83;16.63;;;11.70;99.90;;;;;;5075362;28;20485;-77
2021/03/11 07:58:46;;;;;;;16.63;15.53;;;11.70;99.90;;;;;;5064557;28;20455;-74
2021/03/11 08:01:14;;;;;;;15.80;14.90;;;11.70;99.90;;;;;;5066173;28;20462;-75
2021/03/11 08:03:46;;;;;;;17.17;16.07;;;11.80;99.90;;;;;;5076478;28;20474;-75
2021/03/11 08:06:25;;;;;;;15.77;14.90;;;11.80;99.90;;;;;;5077686;28;20832;-74
2021/03/11 08:08:52;;;;;;;17.60;16.20;;;11.80;99.90;;;;;;5063939;28;20454;-78
2021/03/11 08:11:35;;;;;;;18.57;16.87;;;11.80;99.90;;;;;;5071986;28;20938;-75
2021/03/11 08:14:21;;;;;;;15.93;14.93;;;11.70;99.90;;;;;;5069676;28;20489;-77
2021/03/11 08:16:48;;;;;;;16.50;15.50;;;12.00;99.90;;;;;;5071190;28;20552;-77
2021/03/11 08:19:48;;;;;;;17.10;15.83;;;12.10;99.90;;;;;;5067444;28;20458;-77
2021/03/11 08:22:36;;;;;;;16.23;15.23;;;12.00;99.90;;;;;;5061976;28;20461;-73
2021/03/11 08:25:02;;;;;;;14.70;14.00;;;11.80;99.90;;;;;;5073853;28;20465;-76
2021/03/11 08:27:42;;;;;;;17.47;16.17;;;11.60;99.90;;;;;;5062356;28;20455;-77
2021/03/11 08:30:51;;;;;;;21.37;20.00;;;11.10;99.90;;;;;;5064876;28;20455;-75
2021/03/11 08:33:54;;;;;;;22.53;20.87;;;10.60;99.90;;;;;;5074272;28;20467;-76
2021/03/11 08:36:44;;;;;;;20.27;18.97;;;10.00;99.90;;;;;;5061930;28;20573;-77
2021/03/11 08:39:33;;;;;;;19.63;18.43;;;9.60;99.90;;;;;;5057066;28;20802;-77
2021/03/11 08:42:15;;;;;;;22.83;21.00;;;9.40;99.90;;;;;;5070383;28;20494;-81
2021/03/11 08:44:46;;;;;;;19.53;18.33;;;9.30;99.90;;;;;;5074736;28;21051;-80
2021/03/11 08:47:13;;;;;;;18.83;17.73;;;9.20;99.90;;;;;;5066719;28;20490;-78
2021/03/11 08:49:44;;;;;;;17.80;16.80;;;9.10;99.90;;;;;;5069816;28;20463;-79
2021/03/11 08:52:39;;;;;;;18.07;17.07;;;9.10;99.90;;;;;;5073149;28;20462;-78
2021/03/11 08:55:35;;;;;;;17.93;16.93;;;9.10;99.90;;;;;;5061894;28;20542;-77
2021/03/11 08:58:01;;;;;;;18.40;17.40;;;9.20;99.90;;;;;;5067248;28;20840;-77
2021/03/11 09:00:57;;;;;;;19.50;17.83;;;9.30;99.90;;;;;;5068821;28;20478;-79
2021/03/11 09:03:40;;;;;;;16.60;15.70;;;9.30;99.90;;;;;;5063031;28;20517;-78
2021/03/11 09:06:08;;;;;;;16.17;15.37;;;9.20;99.90;;;;;;5069450;28;20728;-76
2021/03/11 09:08:35;;;;;;;19.30;17.50;;;9.20;99.90;;;;;;5064041;28;20467;-76
2021/03/11 09:11:11;;;;;;;18.40;17.10;;;9.30;99.90;;;;;;5054850;28;20486;-76
2021/03/11 09:13:41;;;;;;;19.30;17.70;;;9.40;99.90;;;;;;5060793;28;20462;-75
2021/03/11 09:16:08;;;;;;;19.07;17.37;;;9.40;99.90;;;;;;5065976;28;20498;-76
2021/03/11 09:18:35;;;;;;;19.67;17.87;;;9.50;99.90;;;;;;5063251;28;20466;-75
2021/03/11 09:21:03;;;;;;;20.37;17.93;;;9.40;99.90;;;;;;5064691;28;20455;-75
2021/03/11 09:23:34;;;;;;;21.13;18.10;;;9.50;99.90;;;;;;5063081;28;20459;-76
2021/03/11 09:26:01;;;;;;;23.97;17.77;;;9.40;99.90;;;;;;5064873;28;20466;-76
2021/03/11 09:28:28;;;;;;;16.20;15.40;;;9.40;99.90;;;;;;5061173;28;20465;-76
2021/03/11 09:30:55;;;;;;;15.93;15.13;;;9.40;99.90;;;;;;5071222;28;20465;-75
2021/03/11 09:33:22;;;;;;;16.03;15.23;;;9.40;99.90;;;;;;5071632;28;20478;-74
2021/03/11 09:35:49;;;;;;;15.43;14.73;;;9.50;99.90;;;;;;5076166;28;20511;-76
2021/03/11 09:38:20;;;;;;;15.23;14.53;;;9.60;99.90;;;;;;5062597;28;20471;-74
2021/03/11 09:40:48;;;;;;;14.67;13.97;;;9.70;99.90;;;;;;5063432;28;20478;-73
2021/03/11 09:43:26;;;;;;;15.17;14.47;;;9.90;99.90;;;;;;5065128;28;20459;-76
2021/03/11 09:45:57;;;;;;;15.40;14.63;;;10.00;99.90;;;;;;5063183;28;20458;-74
2021/03/11 09:48:26;;;;;;;15.10;14.40;;;10.20;99.90;;;;;;5073804;28;20934;-75
2021/03/11 09:50:58;;;;;;;15.80;15.00;;;10.40;99.90;;;;;;5071714;28;21030;-76
2021/03/11 09:53:32;;;;;;;25.97;17.87;;;10.60;99.90;;;;;;5067798;28;20914;-75
2021/03/11 09:55:58;;;;;;;17.90;16.40;;;10.80;99.90;;;;;;5065032;28;20489;-75
2021/03/11 09:58:25;;;;;;;18.07;16.53;;;11.00;99.90;;;;;;5063433;28;20553;-75
2021/03/11 10:00:51;;;;;;;20.20;18.47;;;11.20;99.90;;;;;;5064140;28;21064;-74
2021/03/11 10:03:21;;;;;;;18.60;17.07;;;11.60;99.90;;;;;;5067527;28;20459;-74
2021/03/11 10:05:55;;;;;;;21.83;19.80;;;12.00;99.90;;;;;;5067355;28;20470;-75
2021/03/11 10:08:37;;;;;;;19.90;18.00;;;12.30;99.90;;;;;;5063720;28;20467;-78
2021/03/11 10:11:10;;;;;;;16.43;15.20;;;12.50;99.90;;;;;;5063705;28;20462;-75
2021/03/11 10:13:49;;;;;;;16.90;15.20;;;12.60;99.90;;;;;;5065509;28;20466;-75
2021/03/11 10:16:19;;;;;;;17.30;15.90;;;12.70;99.90;;;;;;5068241;28;20577;-76
2021/03/11 10:19:05;;;;;;;17.60;15.10;;;12.90;99.90;;;;;;5068797;28;20581;-75
2021/03/11 10:21:33;;;;;;;16.43;14.87;;;12.90;99.90;;;;;;5076230;28;20458;-75
2021/03/11 10:23:59;;;;;;;17.80;15.53;;;13.00;99.90;;;;;;5067993;28;20466;-74
2021/03/11 10:26:31;;;;;;;17.30;14.80;;;12.90;99.90;;;;;;5067756;28;20562;-74
2021/03/11 10:29:04;;;;;;;18.57;15.40;;;13.10;99.90;;;;;;5066653;28;20497;-76
2021/03/11 10:31:32;;;;;;;17.63;15.77;;;13.10;99.90;;;;;;5067905;28;20462;-78
2021/03/11 10:34:07;;;;;;;16.10;14.50;;;13.20;99.90;;;;;;5077739;28;20466;-76
2021/03/11 10:36:37;;;;;;;16.97;15.47;;;13.30;99.90;;;;;;5071292;28;21015;-75
2021/03/11 10:39:09;;;;;;;16.60;15.30;;;13.40;99.90;;;;;;5071914;28;20489;-78
2021/03/11 10:41:36;;;;;;;17.30;15.90;;;13.40;99.90;;;;;;5074836;28;20467;-75
2021/03/11 10:44:13;;;;;;;17.07;15.57;;;13.70;99.90;;;;;;5071061;28;20488;-77
2021/03/11 10:46:41;;;;;;;16.97;15.80;;;13.80;99.90;;;;;;5066750;28;20514;-75
2021/03/11 10:49:10;;;;;;;17.60;15.90;;;13.90;99.90;;;;;;5066205;28;20458;-78
2021/03/11 10:51:37;;;;;;;16.83;15.83;;;14.10;99.90;;;;;;5059509;28;20462;-73
2021/03/11 10:54:04;;;;;;;17.50;16.30;;;14.00;99.90;;;;;;5068689;28;20940;-76
2021/03/11 10:56:30;;;;;;;17.50;16.30;;;14.10;99.90;;;;;;5075796;28;20524;-73
2021/03/11 10:59:01;;;;;;;17.80;16.60;;;14.20;99.90;;;;;;5078436;28;20474;-76
2021/03/11 11:01:28;;;;;;;20.73;16.03;;;14.00;99.90;;;;;;5075203;28;21094;-74
2021/03/11 11:03:56;;;;;;;18.90;17.10;;;14.40;99.90;;;;;;5071153;28;20458;-75
2021/03/11 11:06:24;;;;;;;19.00;17.10;;;14.60;99.90;;;;;;5075081;28;20572;-73
2021/03/11 11:08:51;;;;;;;18.23;16.73;;;14.10;99.90;;;;;;5082886;28;20469;-74
2021/03/11 11:11:19;;;;;;;17.77;16.23;;;14.30;99.90;;;;;;5077773;28;20454;-75
2021/03/11 11:13:46;;;;;;;18.03;16.73;;;14.10;99.90;;;;;;5070595;28;20467;-78
2021/03/11 11:16:12;;;;;;;17.90;16.60;;;14.00;99.90;;;;;;5067931;28;20490;-75
2021/03/11 11:18:39;;;;;;;19.60;17.60;;;14.10;99.90;;;;;;5069651;28;20490;-75
2021/03/11 11:21:06;;;;;;;18.57;16.93;;;14.20;99.90;;;;;;5078719;28;20509;-74
2021/03/11 11:23:33;;;;;;;18.60;16.87;;;14.70;99.90;;;;;;5080119;28;20464;-74
2021/03/11 11:26:00;;;;;;;19.70;17.60;;;14.50;99.90;;;;;;5075066;28;20463;-74
2021/03/11 11:28:27;;;;;;;18.73;17.00;;;14.40;99.90;;;;;;5065168;28;20463;-75
2021/03/11 11:30:54;;;;;;;19.00;17.30;;;14.20;99.90;;;;;;5071028;28;20974;-74
2021/03/11 11:33:20;;;;;;;19.13;17.30;;;14.10;99.90;;;;;;5079957;28;20841;-73
2021/03/11 11:35:49;;;;;;;18.83;16.93;;;14.00;99.90;;;;;;5079353;28;20902;-73
2021/03/11 11:38:15;;;;;;;19.30;17.60;;;14.00;99.90;;;;;;5079073;28;20469;-73
2021/03/11 11:40:42;;;;;;;18.20;16.40;;;14.00;99.90;;;;;;5082744;28;20539;-75
2021/03/11 11:43:09;;;;;;;19.77;18.10;;;14.00;99.90;;;;;;5075330;28;20467;-73
2021/03/11 11:45:36;;;;;;;20.33;18.23;;;13.90;99.90;;;;;;5070898;28;20524;-73
2021/03/11 11:48:03;;;;;;;22.07;17.43;;;13.60;99.90;;;;;;5070514;28;20471;-74
2021/03/11 11:50:29;;;;;;;19.33;17.53;;;13.70;99.90;;;;;;5073306;28;20489;-74
2021/03/11 11:52:56;;;;;;;19.57;17.77;;;13.80;99.90;;;;;;5076798;28;20953;-75
2021/03/11 11:55:22;;;;;;;18.60;17.20;;;13.90;99.90;;;;;;5074331;28;20801;-75
2021/03/11 11:57:50;;;;;;;20.07;18.27;;;14.30;99.90;;;;;;5075431;28;20568;-73
2021/03/11 12:00:18;;;;;;;18.90;17.13;;;14.60;99.90;;;;;;5078742;28;20477;-74
2021/03/11 12:02:45;;;;;;;19.00;17.07;;;14.80;99.90;;;;;;5071594;28;20868;-74
2021/03/11 12:05:13;;;;;;;17.83;16.13;;;14.80;99.90;;;;;;5073347;28;20511;-73
2021/03/11 12:07:40;;;;;;;19.53;17.77;;;14.90;99.90;;;;;;5070798;28;20563;-73
2021/03/11 12:10:09;;;;;;;21.67;16.30;;;15.10;99.90;;;;;;5068509;28;20835;-72
2021/03/11 12:12:35;;;;;;;19.17;17.30;;;15.40;99.90;;;;;;5065758;28;20887;-73
2021/03/11 12:15:03;;;;;;;18.97;17.40;;;15.20;99.90;;;;;;5062307;28;20549;-74
2021/03/11 12:17:29;;;;;;;18.60;17.17;;;15.40;99.90;;;;;;5061922;28;20482;-73
2021/03/11 12:19:56;;;;;;;21.03;18.83;;;15.80;99.90;;;;;;5072687;28;20517;-73
2021/03/11 12:22:22;;;;;;;18.10;16.87;;;15.50;99.90;;;;;;5069974;28;20497;-76
2021/03/11 12:24:49;;;;;;;17.50;16.13;;;15.70;99.90;;;;;;5073186;28;20587;-73
2021/03/11 12:27:15;;;;;;;18.60;16.83;;;15.30;99.90;;;;;;5074641;28;20466;-73
2021/03/11 12:29:42;;;;;;;17.90;16.07;;;14.90;99.90;;;;;;5066525;28;21014;-73
2021/03/11 12:32:10;;;;;;;21.90;17.40;;;14.40;99.90;;;;;;5070403;28;20458;-77
2021/03/11 12:34:36;;;;;;;18.33;16.90;;;14.10;99.90;;;;;;5063579;28;20470;-75
2021/03/11 12:37:03;;;;;;;18.03;16.63;;;14.40;99.90;;;;;;5065701;28;20490;-75
2021/03/11 12:39:29;;;;;;;18.10;16.60;;;14.80;99.90;;;;;;5064918;28;20832;-74
2021/03/11 12:41:55;;;;;;;17.67;16.37;;;15.10;99.90;;;;;;5065048;28;20546;-75
2021/03/11 12:44:21;;;;;;;18.50;17.20;;;14.90;99.90;;;;;;5065776;28;20463;-75